createdAt,value
2022-11-28T00:04:55.817Z,5.47
2022-11-28T00:09:57.450Z,5.28
2022-11-28T00:14:59.071Z,6.45
2022-11-28T00:20:00.657Z,6.20
2022-11-28T00:25:02.238Z,6.38
2022-11-28T00:30:04.374Z,5.43
2022-11-28T00:35:06.239Z,5.93
2022-11-28T00:40:08.107Z,6.20
2022-11-28T00:45:09.659Z,6.47
2022-11-28T00:50:11.402Z,6.15
2022-11-28T00:55:12.991Z,7.07
2022-11-28T01:00:15.160Z,7.38
2022-11-28T01:05:16.851Z,6.30
2022-11-28T01:10:18.792Z,6.88
2022-11-28T01:15:20.354Z,7.35
2022-11-28T01:20:21.859Z,5.82
2022-11-28T01:25:23.773Z,6.75
2022-11-28T01:30:25.495Z,7.25
2022-11-28T01:35:27.218Z,7.00
2022-11-28T01:40:28.754Z,6.75
2022-11-28T01:45:31.878Z,6.80
2022-11-28T01:50:36.101Z,7.53
2022-11-28T01:55:49.332Z,7.50
2022-11-28T02:00:51.232Z,7.45
2022-11-28T02:06:02.683Z,6.88
2022-11-28T02:11:22.820Z,7.40
2022-11-28T02:16:35.498Z,7.15
2022-11-28T02:21:54.999Z,7.72
2022-11-28T02:27:28.522Z,8.32
2022-11-28T02:32:42.162Z,8.10
2022-11-28T02:37:43.635Z,7.35
2022-11-28T02:43:00.539Z,7.22
2022-11-28T02:48:07.081Z,7.30
2022-11-28T02:53:20.161Z,7.53
2022-11-28T02:58:21.648Z,7.72
2022-11-28T03:03:35.573Z,7.38
2022-11-28T03:09:01.369Z,7.38
2022-11-28T03:14:30.406Z,7.07
2022-11-28T03:19:37.883Z,7.50
2022-11-28T03:25:00.667Z,7.35
2022-11-28T03:30:42.674Z,7.97
2022-11-28T03:35:51.466Z,8.63
2022-11-28T03:40:58.439Z,7.40
2022-11-28T03:46:07.687Z,9.13
2022-11-28T03:51:15.206Z,8.15
2022-11-28T03:56:21.728Z,8.43
2022-11-28T04:01:32.141Z,8.32
2022-11-28T04:06:50.926Z,8.88
2022-11-28T04:11:56.674Z,7.85
2022-11-28T04:17:38.028Z,8.57
2022-11-28T04:22:47.030Z,8.75
2022-11-28T04:27:55.007Z,8.35
2022-11-28T04:33:02.751Z,8.57
2022-11-28T04:38:07.194Z,8.68
2022-11-28T04:43:16.705Z,8.60
2022-11-28T04:48:18.733Z,9.45
2022-11-28T04:53:34.079Z,9.75
2022-11-28T04:58:41.144Z,9.63
2022-11-28T05:03:43.110Z,10.32
2022-11-28T05:08:44.693Z,8.85
2022-11-28T05:13:46.525Z,10.15
2022-11-28T05:18:48.495Z,9.45
2022-11-28T05:23:50.099Z,9.45
2022-11-28T05:28:52.065Z,10.25
2022-11-28T05:33:55.204Z,10.48
2022-11-28T05:38:56.763Z,9.65
2022-11-28T05:43:59.647Z,9.68
2022-11-28T05:49:01.281Z,10.57
2022-11-28T05:54:02.926Z,9.75
2022-11-28T05:59:04.461Z,10.20
2022-11-28T06:04:06.039Z,9.57
2022-11-28T06:09:07.775Z,9.80
2022-11-28T06:14:10.644Z,9.90
2022-11-28T06:19:14.966Z,9.70
2022-11-28T06:24:16.750Z,8.57
2022-11-28T06:29:18.410Z,9.50
2022-11-28T06:34:19.977Z,10.27
2022-11-28T06:39:21.586Z,10.15
2022-11-28T06:44:23.092Z,10.15
2022-11-28T06:49:24.617Z,10.77
2022-11-28T06:54:28.006Z,10.00
2022-11-28T06:59:29.644Z,11.60
2022-11-28T07:04:32.469Z,11.18
2022-11-28T07:09:34.220Z,9.73
2022-11-28T07:14:36.060Z,10.60
2022-11-28T07:19:37.755Z,11.38
2022-11-28T07:24:39.306Z,10.10
2022-11-28T07:29:41.221Z,10.40
2022-11-28T07:34:46.608Z,10.75
2022-11-28T07:39:51.704Z,9.95
2022-11-28T07:44:53.335Z,10.07
2022-11-28T07:49:55.061Z,10.57
2022-11-28T07:54:56.581Z,9.55
2022-11-28T07:59:58.095Z,9.40
2022-11-28T08:04:59.693Z,9.02
2022-11-28T08:10:01.235Z,9.02
2022-11-28T08:15:03.049Z,9.15
2022-11-28T08:20:05.212Z,9.48
2022-11-28T08:25:07.010Z,9.38
2022-11-28T08:30:09.452Z,9.00
2022-11-28T08:35:11.113Z,8.63
2022-11-28T08:40:14.329Z,8.85
2022-11-28T08:45:16.004Z,8.38
2022-11-28T08:50:17.605Z,9.27
2022-11-28T08:55:25.011Z,9.20
2022-11-28T09:00:33.285Z,9.13
2022-11-28T09:05:34.781Z,9.00
2022-11-28T09:10:37.953Z,8.32
2022-11-28T09:15:42.260Z,8.90
2022-11-28T09:20:44.092Z,8.48
2022-11-28T09:25:45.633Z,8.85
2022-11-28T09:30:47.325Z,8.20
2022-11-28T09:35:48.865Z,9.00
2022-11-28T09:40:51.596Z,8.13
2022-11-28T09:45:54.592Z,8.38
2022-11-28T09:51:02.929Z,7.75
2022-11-28T09:56:18.419Z,7.82
2022-11-28T10:01:37.593Z,8.50
2022-11-28T10:07:11.254Z,8.40
2022-11-28T10:12:12.746Z,8.30
2022-11-28T10:17:21.061Z,9.93
2022-11-28T10:22:32.398Z,8.25
2022-11-28T10:27:35.739Z,7.72
2022-11-28T10:32:44.090Z,7.43
2022-11-28T10:37:45.878Z,7.93
2022-11-28T10:43:06.268Z,8.40
2022-11-28T10:48:45.733Z,8.90
2022-11-28T10:54:11.681Z,7.97
2022-11-28T10:59:34.876Z,8.27
2022-11-28T11:04:38.697Z,8.27
2022-11-28T11:09:41.293Z,8.10
2022-11-28T11:14:43.788Z,8.68
2022-11-28T11:19:45.493Z,8.00
2022-11-28T11:25:16.016Z,8.57
2022-11-28T11:30:32.000Z,8.43
2022-11-28T11:35:43.785Z,8.77
2022-11-28T11:40:45.423Z,8.60
2022-11-28T11:45:51.282Z,8.30
2022-11-28T11:50:54.467Z,7.28
2022-11-28T11:55:58.422Z,8.18
2022-11-28T12:01:00.933Z,8.02
2022-11-28T12:06:15.059Z,9.30
2022-11-28T12:11:36.938Z,7.43
2022-11-28T12:17:40.399Z,7.93
2022-11-28T12:22:45.238Z,7.85
2022-11-28T12:28:12.476Z,9.57
2022-11-28T12:33:36.122Z,10.50
2022-11-28T12:38:43.687Z,9.80
2022-11-28T12:43:57.930Z,9.77
2022-11-28T12:49:12.908Z,9.07
2022-11-28T12:54:41.670Z,9.95
2022-11-28T13:00:08.143Z,9.27
2022-11-28T13:05:18.910Z,9.88
2022-11-28T13:10:35.323Z,9.15
2022-11-28T13:15:43.104Z,8.90
2022-11-28T13:21:16.818Z,9.05
2022-11-28T13:26:34.362Z,7.45
2022-11-28T13:32:03.938Z,8.57
2022-11-28T13:43:06.475Z,8.02
2022-11-28T13:48:20.441Z,8.52
2022-11-28T13:53:24.348Z,8.60
2022-11-28T13:58:33.816Z,8.80
2022-11-28T14:03:46.511Z,8.70
2022-11-28T14:08:56.963Z,9.50
2022-11-28T14:14:22.362Z,8.52
2022-11-28T14:19:45.869Z,7.93
2022-11-28T14:24:50.146Z,9.35
2022-11-28T14:29:54.720Z,8.70
2022-11-28T14:34:57.134Z,9.93
2022-11-28T14:39:58.724Z,8.77
2022-11-28T14:45:42.823Z,8.98
2022-11-28T14:50:45.956Z,9.00
2022-11-28T14:55:47.616Z,9.95
2022-11-28T15:00:55.858Z,10.25
2022-11-28T15:06:08.645Z,12.18
2022-11-28T15:11:22.323Z,11.02
2022-11-28T15:16:24.749Z,12.35
2022-11-28T15:21:29.024Z,10.98
2022-11-28T15:26:30.773Z,11.27
2022-11-28T15:31:33.225Z,11.40
2022-11-28T15:36:34.821Z,12.60
2022-11-28T15:41:36.380Z,11.50
2022-11-28T15:46:38.022Z,10.65
2022-11-28T15:51:40.146Z,11.63
2022-11-28T15:56:59.609Z,13.93
2022-11-28T16:02:16.578Z,21.42
2022-11-28T16:07:18.962Z,17.13
2022-11-28T16:12:20.888Z,12.95
2022-11-28T16:17:27.394Z,12.73
2022-11-28T16:22:38.058Z,15.35
2022-11-28T16:27:42.673Z,19.08
2022-11-28T16:32:44.310Z,15.80
2022-11-28T16:37:45.876Z,28.40
2022-11-28T16:42:53.300Z,20.35
2022-11-28T16:48:08.078Z,13.82
2022-11-28T16:53:38.626Z,17.65
2022-11-28T16:58:40.133Z,14.23
2022-11-28T17:03:44.475Z,19.20
2022-11-28T17:08:46.625Z,33.88
2022-11-28T17:13:48.404Z,24.00
2022-11-28T17:18:50.767Z,16.38
2022-11-28T17:23:52.272Z,33.75
2022-11-28T17:28:54.115Z,20.15
2022-11-28T17:33:55.645Z,16.58
2022-11-28T17:39:00.965Z,13.30
2022-11-28T17:44:06.005Z,13.82
2022-11-28T17:49:07.606Z,17.63
2022-11-28T17:54:12.503Z,38.30
2022-11-28T17:59:15.974Z,20.42
2022-11-28T18:04:18.126Z,18.58
2022-11-28T18:09:19.700Z,14.00
2022-11-28T18:14:21.412Z,14.52
2022-11-28T18:19:23.056Z,13.05
2022-11-28T18:24:24.605Z,17.08
2022-11-28T18:29:26.771Z,13.70
2022-11-28T18:34:28.319Z,12.60
2022-11-28T18:39:30.352Z,15.68
2022-11-28T18:44:32.121Z,14.80
2022-11-28T18:49:33.658Z,15.55
2022-11-28T18:54:35.701Z,14.00
2022-11-28T18:59:37.962Z,14.30
2022-11-28T19:04:39.733Z,15.77
2022-11-28T19:09:41.451Z,17.08
2022-11-28T19:14:43.208Z,15.23
2022-11-28T19:19:45.141Z,18.38
2022-11-28T19:24:46.878Z,20.15
2022-11-28T19:29:48.382Z,33.38
2022-11-28T19:34:49.876Z,18.95
2022-11-28T19:39:51.671Z,19.50
2022-11-28T19:44:53.163Z,15.23
2022-11-28T19:49:54.766Z,20.85
2022-11-28T19:54:57.074Z,23.65
2022-11-28T19:59:58.757Z,17.63
2022-11-28T20:05:00.634Z,16.15
2022-11-28T20:10:02.166Z,17.48
2022-11-28T20:15:04.262Z,17.65
2022-11-28T20:20:06.940Z,16.33
2022-11-28T20:25:08.578Z,16.33
2022-11-28T20:30:10.617Z,16.05
2022-11-28T20:35:12.395Z,17.75
2022-11-28T20:40:14.268Z,16.10
2022-11-28T20:45:15.870Z,20.17
2022-11-28T20:50:17.450Z,16.85
2022-11-28T20:55:18.963Z,18.33
2022-11-28T21:00:26.272Z,18.38
2022-11-28T21:05:28.179Z,18.05
2022-11-28T21:10:29.733Z,17.58
2022-11-28T21:15:31.379Z,16.15
2022-11-28T21:20:32.909Z,17.55
2022-11-28T21:25:36.250Z,17.90
2022-11-28T21:30:43.567Z,17.48
2022-11-28T21:35:45.060Z,18.80
2022-11-28T21:40:52.359Z,19.27
2022-11-28T21:46:00.183Z,16.92
2022-11-28T21:51:02.137Z,17.17
2022-11-28T21:56:03.879Z,19.90
2022-11-28T22:01:08.901Z,22.20
2022-11-28T22:06:23.918Z,19.08
2022-11-28T22:11:25.503Z,18.42
2022-11-28T22:16:29.273Z,17.40
2022-11-28T22:26:53.390Z,19.27
2022-11-28T22:31:55.074Z,17.13
2022-11-28T22:36:57.885Z,18.50
2022-11-28T22:41:59.627Z,19.02
2022-11-28T22:47:01.143Z,17.70
2022-11-28T22:52:04.037Z,19.40
2022-11-28T22:57:05.564Z,20.73
2022-11-28T23:02:07.252Z,21.38
2022-11-28T23:07:09.492Z,21.98
2022-11-28T23:12:11.019Z,22.75
2022-11-28T23:17:12.524Z,22.75
2022-11-28T23:22:15.036Z,20.90
2022-11-28T23:27:16.852Z,22.80
2022-11-28T23:32:18.475Z,20.63
2022-11-28T23:37:20.438Z,23.05
2022-11-28T23:42:21.955Z,24.30
2022-11-28T23:47:23.519Z,23.23
2022-11-28T23:52:25.110Z,19.77
2022-11-28T23:57:26.619Z,19.10
